Time;durP1;ratioP1;P1;durP2;ratioP2;P2;SDS_P1;SDS_P2;PMS_P1;PMS_P2;Temp;Humidity;BMP_temperature;BMP_pressure;BME280_temperature;BME280_humidity;BME280_pressure;Samples;Min_cycle;Max_cycle;Signal;HPM_P1;HPM_P2
2021/06/15 00:02:04;;;;;;;8.40;7.60;;;;;;;18.61;72.20;99306.19;1742935;81;21013;-42
2021/06/15 00:04:30;;;;;;;8.30;7.42;;;;;;;18.57;72.26;99312.34;1743150;82;21061;-42
2021/06/15 00:06:57;;;;;;;8.73;7.45;;;;;;;18.51;72.43;99309.83;1743218;82;21097;-42
2021/06/15 00:09:24;;;;;;;10.15;7.22;;;;;;;18.47;72.61;99304.99;1745904;81;21195;-42
2021/06/15 00:11:51;;;;;;;7.80;7.00;;;;;;;18.43;72.59;99298.78;1763492;81;21176;-42
2021/06/15 00:14:17;;;;;;;7.90;7.20;;;;;;;18.38;72.58;99297.87;1763613;81;21554;-42
2021/06/15 00:16:44;;;;;;;8.38;7.15;;;;;;;18.36;72.70;99300.23;1733922;81;20981;-42
2021/06/15 00:19:10;;;;;;;8.13;7.33;;;;;;;18.33;72.89;99298.92;1713724;83;21093;-42
2021/06/15 00:21:37;;;;;;;6.70;6.10;;;;;;;18.31;72.86;99297.95;1713563;82;21033;-42
2021/06/15 00:24:06;;;;;;;8.15;6.45;;;;;;;18.25;72.95;99296.84;1713468;82;21966;-42
2021/06/15 00:26:32;;;;;;;6.45;5.78;;;;;;;18.21;73.04;99295.53;1713309;83;20986;-41
2021/06/15 00:28:59;;;;;;;9.03;5.97;;;;;;;18.18;73.00;99301.07;1713722;83;21057;-42
2021/06/15 00:31:27;;;;;;;7.83;6.10;;;;;;;18.16;72.96;99298.73;1713345;83;21614;-42
2021/06/15 00:33:54;;;;;;;7.30;5.47;;;;;;;18.13;72.98;99294.66;1713738;82;21135;-42
2021/06/15 00:36:21;;;;;;;6.40;5.90;;;;;;;18.10;73.07;99295.50;1713404;83;21801;-42
2021/06/15 00:38:47;;;;;;;6.78;5.72;;;;;;;18.06;73.08;99292.00;1713409;83;21006;-42
2021/06/15 00:41:14;;;;;;;6.87;5.78;;;;;;;18.06;73.10;99290.63;1713248;83;20981;-42
2021/06/15 00:43:41;;;;;;;8.73;5.28;;;;;;;18.02;73.07;99283.82;1713535;83;21040;-42
2021/06/15 00:46:07;;;;;;;7.10;5.53;;;;;;;18.00;73.09;99280.73;1713622;83;21052;-42
2021/06/15 00:48:36;;;;;;;7.05;5.62;;;;;;;18.02;72.96;99284.41;1713536;82;21104;-42
2021/06/15 00:51:05;;;;;;;6.12;5.28;;;;;;;18.00;72.89;99287.59;1713388;83;21073;-42
2021/06/15 00:53:34;;;;;;;5.72;5.12;;;;;;;18.00;72.90;99288.18;1713358;82;21045;-42
2021/06/15 00:56:06;;;;;;;5.78;5.25;;;;;;;17.98;72.86;99291.33;1713552;82;21060;-42
2021/06/15 00:58:33;;;;;;;5.80;5.20;;;;;;;17.99;72.79;99289.36;1713454;83;21515;-42
2021/06/15 01:01:01;;;;;;;5.67;5.10;;;;;;;17.97;72.73;99289.76;1713345;82;21134;-43
2021/06/15 01:03:28;;;;;;;7.90;4.87;;;;;;;17.97;72.67;99295.25;1713631;83;21610;-43
2021/06/15 01:05:55;;;;;;;6.58;5.12;;;;;;;17.97;72.63;99293.88;1713352;83;20914;-43
2021/06/15 01:08:47;;;;;;;6.17;5.15;;;;;;;17.99;72.50;99294.84;1713612;83;21005;-42
2021/06/15 01:11:38;;;;;;;5.05;4.53;;;;;;;17.99;72.43;99288.77;1713326;82;21034;-42
2021/06/15 01:14:21;;;;;;;5.97;5.10;;;;;;;17.98;72.30;99282.31;1713432;83;21094;-43
2021/06/15 01:17:08;;;;;;;6.05;5.00;;;;;;;17.97;72.32;99279.38;1713460;82;20938;-42
2021/06/15 01:19:54;;;;;;;6.62;4.90;;;;;;;17.95;72.34;99279.03;1713424;82;21096;-43
2021/06/15 01:23:05;;;;;;;7.20;4.97;;;;;;;17.94;72.29;99285.70;1713498;83;21044;-43
2021/06/15 01:25:48;;;;;;;5.78;5.10;;;;;;;17.95;72.19;99285.30;1713249;82;21037;-42
2021/06/15 01:28:29;;;;;;;5.70;5.20;;;;;;;17.93;72.22;99281.39;1713491;83;21496;-42
2021/06/15 01:31:10;;;;;;;5.15;4.75;;;;;;;17.92;72.24;99281.98;1713187;83;21033;-43
2021/06/15 01:33:43;;;;;;;7.03;5.42;;;;;;;17.92;72.12;99283.95;1713581;82;21422;-42
2021/06/15 01:36:12;;;;;;;5.92;5.35;;;;;;;17.96;71.88;99281.96;1713313;83;20981;-43
2021/06/15 01:38:43;;;;;;;5.40;4.90;;;;;;;17.97;71.74;99281.53;1661956;83;21057;-42
2021/06/15 01:41:13;;;;;;;6.20;5.10;;;;;;;17.99;71.66;99278.39;1713128;82;21496;-43
2021/06/15 01:43:44;;;;;;;5.70;5.00;;;;;;;18.00;71.67;99288.18;1713659;82;21021;-42
2021/06/15 01:46:13;;;;;;;6.65;5.33;;;;;;;18.00;71.61;99286.80;1713276;82;21045;-43
2021/06/15 01:48:54;;;;;;;6.03;5.47;;;;;;;18.00;71.63;99284.84;1713519;83;21017;-43
2021/06/15 01:51:24;;;;;;;8.00;5.67;;;;;;;18.02;71.57;99287.16;1713405;83;21029;-43
2021/06/15 01:54:00;;;;;;;6.05;5.42;;;;;;;18.00;71.55;99277.98;1713472;83;21363;-42
2021/06/15 01:56:28;;;;;;;6.83;6.12;;;;;;;18.00;71.42;99274.46;1712293;82;21092;-43
2021/06/15 01:58:57;;;;;;;8.88;6.72;;;;;;;17.93;71.37;99280.80;1713709;82;20938;-43
2021/06/15 02:01:27;;;;;;;7.10;6.40;;;;;;;17.92;71.41;99283.95;1703276;83;20994;-43
2021/06/15 02:03:55;;;;;;;;;;;;;;;17.92;71.27;99281.20;1716200;82;21002;-43
2021/06/15 02:06:24;;;;;;;7.75;6.03;;;;;;;17.90;71.22;99283.59;1713190;83;22397;-43
2021/06/15 02:08:53;;;;;;;6.85;6.25;;;;;;;17.80;71.43;99281.16;1713151;82;21056;-43
2021/06/15 02:11:27;;;;;;;7.37;6.67;;;;;;;17.81;71.42;99285.47;1688008;83;20994;-43
2021/06/15 02:13:58;;;;;;;7.25;6.55;;;;;;;17.78;71.45;99280.78;1725806;82;21046;-43
2021/06/15 02:16:35;;;;;;;8.15;6.90;;;;;;;17.74;71.62;99282.20;1739886;81;21252;-42
2021/06/15 02:19:25;;;;;;;7.12;6.12;;;;;;;17.69;71.86;99284.61;1743077;82;21135;-43
2021/06/15 02:22:08;;;;;;;6.42;5.83;;;;;;;17.63;71.99;99287.02;1706995;83;21028;-42
2021/06/15 02:24:42;;;;;;;6.35;5.75;;;;;;;17.62;72.12;99289.56;1707320;84;21028;-43
2021/06/15 02:27:10;;;;;;;6.70;6.03;;;;;;;17.63;72.14;99286.23;1707318;84;20984;-43
2021/06/15 02:29:39;;;;;;;7.05;6.22;;;;;;;17.63;72.17;99293.09;1732687;82;21033;-43
2021/06/15 02:32:08;;;;;;;7.17;6.08;;;;;;;17.61;72.05;99286.66;1742886;82;21141;-43
2021/06/15 02:34:37;;;;;;;7.12;6.08;;;;;;;17.61;72.14;99285.30;1743150;82;20914;-43
2021/06/15 02:37:07;;;;;;;7.08;6.15;;;;;;;17.61;72.25;99286.66;1742891;82;20966;-42
2021/06/15 02:39:35;;;;;;;6.83;6.10;;;;;;;17.61;72.38;99293.52;1743006;82;20958;-42
2021/06/15 02:42:06;;;;;;;6.62;6.03;;;;;;;17.66;72.30;99298.55;1743121;81;21076;-42
2021/06/15 02:44:37;;;;;;;7.45;6.50;;;;;;;17.69;72.18;99299.09;1743417;81;21579;-42
2021/06/15 02:47:03;;;;;;;6.70;6.05;;;;;;;17.70;72.26;99299.29;1707250;84;20992;-43
2021/06/15 02:49:36;;;;;;;7.40;6.42;;;;;;;17.72;72.33;99304.34;1742929;81;21011;-43
2021/06/15 02:52:08;;;;;;;6.75;6.15;;;;;;;17.73;72.42;99302.58;1707293;83;20989;-42
2021/06/15 02:54:50;;;;;;;7.65;6.33;;;;;;;17.74;72.53;99304.14;1707512;84;21280;-42
2021/06/15 02:57:17;;;;;;;8.50;6.37;;;;;;;17.78;72.53;99312.31;1755916;81;21145;-42
2021/06/15 02:59:45;;;;;;;7.83;6.33;;;;;;;17.80;72.46;99317.59;1742933;81;21010;-43
2021/06/15 03:02:12;;;;;;;7.55;6.65;;;;;;;17.84;72.41;99309.91;1743161;82;21610;-43
2021/06/15 03:04:45;;;;;;;10.65;6.47;;;;;;;17.86;72.31;99310.29;1707444;83;21013;-43
2021/06/15 03:07:11;;;;;;;7.12;6.40;;;;;;;17.87;72.41;99308.48;1707188;84;20953;-43
2021/06/15 03:09:39;;;;;;;9.88;6.08;;;;;;;17.88;72.47;99302.41;1707313;84;21802;-43
2021/06/15 03:12:15;;;;;;;7.87;6.85;;;;;;;17.91;72.58;99312.59;1732259;82;20965;-43
2021/06/15 03:14:48;;;;;;;6.83;6.12;;;;;;;17.98;72.58;99309.74;1743264;81;21033;-43
2021/06/15 03:17:15;;;;;;;8.70;5.92;;;;;;;18.04;72.58;99305.36;1707221;84;20973;-43
2021/06/15 03:20:09;;;;;;;6.95;6.25;;;;;;;18.10;72.52;99303.73;1707394;84;21588;-43
2021/06/15 03:22:49;;;;;;;7.53;6.80;;;;;;;18.17;72.44;99305.00;1736702;81;21080;-43
2021/06/15 03:25:25;;;;;;;6.37;5.77;;;;;;;18.20;72.38;99304.19;1707720;84;20974;-43
2021/06/15 03:27:56;;;;;;;7.60;6.03;;;;;;;18.23;72.40;99305.52;1743059;82;20977;-43
2021/06/15 03:30:23;;;;;;;7.17;6.47;;;;;;;18.26;72.41;99312.12;1743261;82;21009;-43
2021/06/15 03:33:03;;;;;;;6.30;5.80;;;;;;;18.29;72.27;99316.03;1743106;82;21025;-43
2021/06/15 03:35:32;;;;;;;8.73;5.65;;;;;;;18.34;72.25;99312.83;1743290;82;21056;-43
2021/06/15 03:38:02;;;;;;;6.45;5.85;;;;;;;18.38;72.26;99310.22;1684353;82;21096;-43
2021/06/15 03:40:32;;;;;;;6.33;5.73;;;;;;;18.46;71.99;99316.38;1707228;82;20976;-43
2021/06/15 03:42:58;;;;;;;;;;;;;;;18.50;72.03;99317.88;1709693;84;21614;-44
2021/06/15 03:45:26;;;;;;;7.08;5.90;;;;;;;18.54;72.09;99319.26;1694357;84;20197;-43
2021/06/15 03:47:54;;;;;;;6.80;6.05;;;;;;;18.49;72.25;99325.93;1693834;84;21812;-43
2021/06/15 03:50:21;;;;;;;6.70;6.10;;;;;;;18.54;72.23;99330.98;1671192;85;21069;-44
2021/06/15 03:52:51;;;;;;;8.08;6.60;;;;;;;18.60;72.12;99330.72;1678885;85;21033;-43
2021/06/15 03:55:19;;;;;;;6.92;6.33;;;;;;;18.65;72.15;99331.63;1678893;85;21018;-44
2021/06/15 03:57:46;;;;;;;6.97;5.83;;;;;;;18.67;72.15;99331.22;1678832;85;21008;-43
2021/06/15 04:00:17;;;;;;;7.20;6.50;;;;;;;18.71;72.26;99329.79;1678912;85;21896;-43
2021/06/15 04:02:46;;;;;;;6.97;6.37;;;;;;;18.78;72.26;99336.56;1679106;85;21518;-43
2021/06/15 04:05:15;;;;;;;7.28;6.58;;;;;;;18.82;72.23;99335.91;1678782;85;21032;-43
2021/06/15 04:07:44;;;;;;;8.38;6.47;;;;;;;18.88;72.24;99339.13;1679068;85;21032;-43
2021/06/15 04:10:12;;;;;;;7.72;6.35;;;;;;;18.94;72.17;99336.70;1679007;85;21064;-43
2021/06/15 04:12:39;;;;;;;7.60;6.80;;;;;;;18.97;72.14;99336.66;1679072;85;21101;-43
2021/06/15 04:15:08;;;;;;;7.40;6.12;;;;;;;19.05;72.10;99330.45;1678774;85;21021;-44
2021/06/15 04:17:46;;;;;;;8.00;6.83;;;;;;;19.10;72.18;99327.22;1681761;82;21080;-43
2021/06/15 04:20:14;;;;;;;7.00;6.30;;;;;;;19.14;72.25;99329.31;1707283;84;20946;-43
2021/06/15 04:22:47;;;;;;;7.70;7.00;;;;;;;19.19;72.60;99338.46;1707631;84;21048;-43
2021/06/15 04:25:18;;;;;;;7.33;6.72;;;;;;;19.25;72.67;99329.14;1707180;84;21131;-43
2021/06/15 04:27:46;;;;;;;8.33;7.00;;;;;;;19.33;72.69;99331.34;1707287;84;21049;-44
2021/06/15 04:30:15;;;;;;;7.35;6.72;;;;;;;19.44;72.62;99325.70;1707239;84;21084;-43
2021/06/15 04:32:53;;;;;;;7.30;6.67;;;;;;;19.52;72.24;99327.90;1707576;84;21005;-43
2021/06/15 04:35:41;;;;;;;7.83;6.62;;;;;;;19.61;72.02;99334.22;1707403;84;21052;-43
2021/06/15 04:38:14;;;;;;;7.42;6.72;;;;;;;19.67;71.94;99332.55;1742962;82;21089;-43
2021/06/15 04:40:45;;;;;;;7.10;6.40;;;;;;;19.76;71.93;99330.02;1742976;81;20938;-43
2021/06/15 04:43:22;;;;;;;7.80;6.87;;;;;;;19.86;71.79;99326.88;1743600;81;21028;-43
2021/06/15 04:45:49;;;;;;;7.40;6.62;;;;;;;19.95;71.90;99329.25;1707316;83;20969;-43
2021/06/15 04:48:27;;;;;;;7.00;6.30;;;;;;;20.07;71.68;99334.73;1707561;84;21028;-43
2021/06/15 04:51:00;;;;;;;7.53;6.33;;;;;;;20.16;71.29;99336.91;1707164;84;21828;-43
2021/06/15 04:53:34;;;;;;;8.80;7.03;;;;;;;20.24;71.09;99331.42;1712596;83;20921;-43
2021/06/15 04:56:01;;;;;;;9.73;6.87;;;;;;;20.32;70.97;99337.78;1750861;81;21071;-43
2021/06/15 04:58:30;;;;;;;9.20;6.62;;;;;;;20.39;71.22;99333.48;1714992;83;21059;-44
2021/06/15 05:00:59;;;;;;;7.20;6.50;;;;;;;20.48;70.98;99330.16;1715084;83;21001;-44
2021/06/15 05:03:30;;;;;;;7.65;6.10;;;;;;;20.57;70.90;99328.99;1715106;83;21528;-44
2021/06/15 05:06:05;;;;;;;6.45;5.78;;;;;;;20.68;70.58;99334.24;1710538;83;21012;-44
2021/06/15 05:08:50;;;;;;;7.20;6.47;;;;;;;20.78;70.61;99324.36;1715385;83;20969;-44
2021/06/15 05:11:14;;;;;;;8.88;6.40;;;;;;;20.91;70.34;99332.75;1714400;83;21645;-44
2021/06/15 05:13:41;;;;;;;6.58;5.85;;;;;;;21.02;69.90;99331.87;1714754;83;21017;-43
2021/06/15 05:16:09;;;;;;;6.95;5.90;;;;;;;21.14;69.79;99330.45;1715024;83;21093;-44
2021/06/15 05:18:37;;;;;;;6.85;6.25;;;;;;;21.25;69.39;99337.23;1715183;83;21499;-44
2021/06/15 05:21:17;;;;;;;8.88;6.25;;;;;;;21.36;69.00;99327.32;1714948;83;21080;-43
2021/06/15 05:23:57;;;;;;;6.75;5.80;;;;;;;21.47;68.68;99335.33;1715022;83;21025;-44
2021/06/15 05:26:24;;;;;;;9.28;6.62;;;;;;;21.56;68.14;99332.13;1751072;82;21084;-44
2021/06/15 05:28:51;;;;;;;6.00;5.40;;;;;;;21.68;68.08;99332.02;1750969;82;21125;-44
2021/06/15 05:31:18;;;;;;;6.10;5.50;;;;;;;21.76;67.58;99326.47;1751003;82;21163;-43
2021/06/15 05:33:44;;;;;;;7.10;5.80;;;;;;;21.85;67.48;99329.38;1715161;83;21511;-43
2021/06/15 05:36:11;;;;;;;6.40;5.80;;;;;;;21.95;67.42;99326.96;1714830;83;21012;-43
2021/06/15 05:38:38;;;;;;;6.35;5.50;;;;;;;22.06;66.54;99330.81;1715015;83;21028;-44
2021/06/15 05:41:04;;;;;;;6.05;5.40;;;;;;;22.16;66.75;99328.95;1715041;83;21147;-44
2021/06/15 05:43:32;;;;;;;8.03;5.70;;;;;;;22.24;65.92;99328.31;1714973;83;21060;-44
2021/06/15 05:45:58;;;;;;;5.95;5.33;;;;;;;22.33;65.75;99327.66;1714883;83;21025;-44
2021/06/15 05:48:25;;;;;;;5.90;5.35;;;;;;;22.41;65.40;99330.39;1715285;83;21021;-43
2021/06/15 05:50:51;;;;;;;5.72;5.22;;;;;;;22.50;64.98;99328.53;1714886;83;21064;-44
2021/06/15 05:53:18;;;;;;;6.97;5.97;;;;;;;22.58;64.82;99328.30;1715036;83;21542;-44
2021/06/15 05:55:46;;;;;;;6.08;5.45;;;;;;;22.67;64.98;99331.17;1714870;83;21707;-44
2021/06/15 05:58:14;;;;;;;6.30;5.30;;;;;;;22.76;64.53;99330.70;1715168;83;21504;-43
2021/06/15 06:00:41;;;;;;;7.58;5.55;;;;;;;22.85;64.34;99327.30;1714811;83;21353;-43
2021/06/15 06:03:08;;;;;;;5.72;5.17;;;;;;;22.93;63.82;99328.01;1714942;83;21029;-44
2021/06/15 06:08:22;;;;;;;6.85;5.28;;;;;;;23.13;63.20;99329.75;1715415;83;20936;-44
2021/06/15 06:10:52;;;;;;;5.45;4.95;;;;;;;23.21;63.35;99330.45;1715036;83;21013;-44
2021/06/15 06:13:19;;;;;;;8.05;5.10;;;;;;;23.30;63.52;99329.16;1715166;83;20997;-44
2021/06/15 06:15:46;;;;;;;5.53;4.25;;;;;;;23.42;63.20;99326.21;1715300;83;21084;-43
2021/06/15 06:18:13;;;;;;;6.70;4.10;;;;;;;23.51;61.11;99327.70;1715089;83;21117;-44
2021/06/15 06:20:39;;;;;;;5.40;4.40;;;;;;;23.61;59.52;99327.17;1715227;83;21095;-44
2021/06/15 06:23:06;;;;;;;4.53;3.87;;;;;;;23.71;59.95;99324.65;1715475;83;21506;-44
2021/06/15 06:25:33;;;;;;;5.62;4.60;;;;;;;23.81;59.86;99322.89;1714975;83;20997;-44
2021/06/15 06:27:59;;;;;;;6.28;5.03;;;;;;;23.93;60.13;99324.05;1715310;83;21905;-44
2021/06/15 06:30:26;;;;;;;4.75;4.33;;;;;;;24.02;60.56;99323.33;1715167;83;21069;-44
2021/06/15 06:32:53;;;;;;;4.37;3.98;;;;;;;24.13;58.93;99323.72;1714970;83;21518;-44
2021/06/15 06:35:19;;;;;;;8.75;4.35;;;;;;;24.22;57.57;99322.42;1715487;83;21012;-43
2021/06/15 06:37:46;;;;;;;5.67;4.12;;;;;;;24.35;57.43;99324.48;1715283;83;21594;-45
2021/06/15 06:40:14;;;;;;;5.67;4.05;;;;;;;24.46;57.55;99319.93;1714915;83;21040;-44
2021/06/15 06:42:40;;;;;;;6.15;4.85;;;;;;;24.56;56.58;99322.91;1715344;83;21129;-43
2021/06/15 06:45:09;;;;;;;5.10;4.70;;;;;;;24.63;56.45;99322.65;1715374;83;22146;-44
2021/06/15 06:47:35;;;;;;;5.00;4.50;;;;;;;24.73;56.99;99315.14;1715102;83;21605;-44
2021/06/15 06:50:04;;;;;;;5.35;4.42;;;;;;;24.82;57.37;99311.01;1715095;83;21025;-44
2021/06/15 06:52:31;;;;;;;6.30;4.50;;;;;;;24.88;55.98;99311.38;1715019;83;21032;-44
2021/06/15 06:54:57;;;;;;;5.20;4.70;;;;;;;24.96;55.30;99314.63;1707419;84;21142;-44
2021/06/15 06:57:24;;;;;;;5.65;4.45;;;;;;;25.01;55.32;99308.48;1707511;84;21576;-44
2021/06/15 06:59:51;;;;;;;5.67;4.33;;;;;;;25.07;55.24;99306.66;1707444;84;20969;-44
2021/06/15 07:02:17;;;;;;;8.25;4.20;;;;;;;25.12;55.18;99310.21;1707588;84;21866;-44
2021/06/15 07:04:44;;;;;;;4.72;4.12;;;;;;;25.21;55.06;99314.39;1707508;84;21092;-44
2021/06/15 07:07:11;;;;;;;6.42;4.80;;;;;;;25.29;54.64;99317.02;1707588;84;21151;-43
2021/06/15 07:09:37;;;;;;;4.33;3.92;;;;;;;25.35;55.06;99310.24;1707344;84;20998;-44
2021/06/15 07:12:07;;;;;;;4.40;4.05;;;;;;;25.42;54.91;99310.70;1707535;84;20976;-44
2021/06/15 07:14:35;;;;;;;6.35;4.42;;;;;;;25.51;54.97;99307.93;1707605;84;21494;-43
2021/06/15 07:17:04;;;;;;;;;;;;;;;25.63;54.73;99309.05;1710055;84;21048;-44
2021/06/15 07:19:34;;;;;;;4.97;4.10;;;;;;;25.72;54.10;99307.66;1694233;84;21170;-44
2021/06/15 07:22:04;;;;;;;7.58;3.65;;;;;;;25.71;53.30;99310.89;1694240;84;21014;-44
2021/06/15 07:24:34;;;;;;;5.85;4.17;;;;;;;25.79;52.52;99305.97;1694186;84;21250;-44
2021/06/15 07:34:55;;;;;;;5.50;4.20;;;;;;;26.03;50.86;99300.55;1707245;84;21109;-43
2021/06/15 07:37:22;;;;;;;5.37;3.97;;;;;;;26.12;52.13;99298.36;1707525;84;20989;-43
2021/06/15 07:39:49;;;;;;;5.97;3.70;;;;;;;26.20;51.99;99289.23;1707124;83;21045;-44
2021/06/15 07:42:16;;;;;;;4.00;3.60;;;;;;;26.31;51.92;99291.55;1707153;83;21041;-43
2021/06/15 07:44:43;;;;;;;5.25;3.87;;;;;;;26.39;50.99;99292.75;1707358;84;21053;-43
2021/06/15 07:47:10;;;;;;;4.03;3.47;;;;;;;26.48;51.47;99289.19;1707359;84;21952;-43
2021/06/15 07:49:37;;;;;;;6.85;3.17;;;;;;;26.56;49.16;99283.44;1706976;84;21066;-42
2021/06/15 07:52:04;;;;;;;6.58;3.33;;;;;;;26.63;48.78;99287.25;1707294;84;21033;-43
2021/06/15 07:54:32;;;;;;;3.30;2.98;;;;;;;26.68;48.29;99285.22;1707192;83;21045;-43
2021/06/15 07:56:58;;;;;;;4.28;3.12;;;;;;;26.74;48.14;99285.51;1707189;84;21085;-43
2021/06/15 07:59:25;;;;;;;3.67;3.15;;;;;;;26.83;49.10;99284.07;1707412;83;21819;-43
2021/06/15 08:01:52;;;;;;;6.78;3.80;;;;;;;26.92;47.90;99279.09;1707271;84;21029;-43
2021/06/15 08:04:19;;;;;;;4.45;3.50;;;;;;;27.01;48.01;99288.81;1707286;83;20986;-43
2021/06/15 08:06:46;;;;;;;5.12;3.12;;;;;;;27.09;47.56;99281.64;1707346;84;21052;-43
2021/06/15 08:09:13;;;;;;;3.70;3.10;;;;;;;27.15;47.25;99274.19;1707448;84;21029;-43
2021/06/15 08:11:41;;;;;;;4.83;3.30;;;;;;;27.23;47.04;99276.75;1707127;83;20998;-43
2021/06/15 08:14:08;;;;;;;3.70;3.05;;;;;;;27.32;47.60;99277.92;1707296;84;21641;-43
2021/06/15 08:16:34;;;;;;;3.30;3.00;;;;;;;27.42;46.74;99272.44;1707296;84;21049;-42
2021/06/15 08:19:01;;;;;;;5.62;2.95;;;;;;;27.54;47.10;99268.67;1679219;84;20954;-43
2021/06/15 08:21:28;;;;;;;3.75;2.83;;;;;;;27.65;45.15;99261.27;1707407;84;21045;-43
2021/06/15 08:23:55;;;;;;;5.05;2.75;;;;;;;27.74;44.90;99261.81;1707274;84;21791;-43
2021/06/15 08:26:21;;;;;;;3.60;2.75;;;;;;;27.78;43.80;99263.81;1707128;84;21013;-43
2021/06/15 08:28:48;;;;;;;2.75;2.30;;;;;;;27.84;44.15;99261.87;1707379;84;21029;-43
2021/06/15 08:31:15;;;;;;;3.20;2.75;;;;;;;27.90;43.79;99255.02;1703235;84;21497;-43
2021/06/15 08:33:41;;;;;;;3.15;2.80;;;;;;;27.97;42.97;99251.86;1707119;84;21046;-43
2021/06/15 08:36:08;;;;;;;5.53;3.02;;;;;;;28.04;43.50;99252.23;1712346;83;21104;-42
2021/06/15 08:38:35;;;;;;;3.47;2.75;;;;;;;28.17;43.90;99252.60;1683106;83;21049;-42
2021/06/15 08:41:02;;;;;;;3.15;2.80;;;;;;;28.24;43.45;99254.36;1743855;82;21005;-43
2021/06/15 08:43:28;;;;;;;4.30;2.90;;;;;;;28.32;43.79;99238.77;1751322;81;21018;-43
2021/06/15 08:45:55;;;;;;;3.65;2.95;;;;;;;28.43;43.68;99246.55;1748516;81;21105;-43
2021/06/15 08:48:22;;;;;;;4.72;2.77;;;;;;;28.55;43.61;99242.69;1727528;80;21132;-43
2021/06/15 08:50:50;;;;;;;4.55;2.95;;;;;;;28.64;42.18;99241.17;1723292;80;21017;-43
2021/06/15 08:53:16;;;;;;;3.40;3.10;;;;;;;28.68;42.03;99244.52;1720622;82;21088;-43
2021/06/15 08:55:52;;;;;;;3.12;2.72;;;;;;;28.72;43.07;99239.53;1713486;82;20989;-43
2021/06/15 08:58:43;;;;;;;3.45;2.67;;;;;;;28.77;41.99;99239.47;1714094;80;21078;-43
2021/06/15 09:01:11;;;;;;;3.05;2.70;;;;;;;28.79;42.83;99235.58;1713515;83;21093;-43
2021/06/15 09:03:40;;;;;;;4.00;3.00;;;;;;;28.84;42.95;99239.84;1713511;83;21593;-43
2021/06/15 09:06:07;;;;;;;6.22;2.92;;;;;;;28.95;42.52;99237.80;1679092;84;21547;-43
2021/06/15 09:08:48;;;;;;;3.67;2.80;;;;;;;29.00;42.32;99235.71;1721233;80;21045;-43
2021/06/15 09:11:15;;;;;;;3.27;2.85;;;;;;;29.03;42.53;99232.59;1714541;80;21030;-43
2021/06/15 09:13:43;;;;;;;3.22;2.85;;;;;;;29.10;42.57;99225.95;1714630;80;20998;-43
2021/06/15 09:16:26;;;;;;;3.45;2.77;;;;;;;29.24;42.51;99229.29;1727612;80;20930;-43
2021/06/15 09:18:57;;;;;;;3.60;3.17;;;;;;;29.36;42.06;99220.45;1720722;80;21526;-43
2021/06/15 09:21:36;;;;;;;5.42;2.67;;;;;;;29.45;42.26;99224.48;1722441;80;21002;-43
2021/06/15 09:24:24;;;;;;;3.55;2.70;;;;;;;29.54;40.90;99220.13;1726768;80;21009;-44
2021/06/15 09:27:09;;;;;;;3.40;2.50;;;;;;;29.59;39.31;99225.64;1729028;82;21082;-44
2021/06/15 09:29:54;;;;;;;2.70;2.50;;;;;;;29.57;39.31;99223.36;1740996;82;21573;-44
2021/06/15 09:32:25;;;;;;;3.67;2.60;;;;;;;29.62;39.63;99218.46;1731074;82;21547;-44
2021/06/15 09:35:00;;;;;;;5.22;2.62;;;;;;;29.67;40.34;99216.98;1726391;80;20989;-43
2021/06/15 09:37:52;;;;;;;3.80;2.30;;;;;;;29.64;39.10;99208.94;1712365;82;22143;-44
2021/06/15 09:40:34;;;;;;;2.67;2.30;;;;;;;29.68;37.19;99222.05;1693400;83;21131;-44
2021/06/15 09:43:11;;;;;;;4.83;2.77;;;;;;;29.68;38.42;99210.88;1678982;84;21527;-44
2021/06/15 09:45:47;;;;;;;3.10;2.77;;;;;;;29.71;39.48;99221.09;1707581;84;21028;-44
2021/06/15 09:48:31;;;;;;;4.75;2.50;;;;;;;29.80;38.32;99215.33;1698098;84;21076;-43
2021/06/15 09:51:02;;;;;;;4.60;2.55;;;;;;;29.87;38.42;99202.92;1680307;84;21088;-43
2021/06/15 09:53:44;;;;;;;2.95;2.50;;;;;;;29.91;38.06;99207.70;1681254;84;21555;-44
2021/06/15 09:56:14;;;;;;;2.83;2.20;;;;;;;29.92;37.41;99200.09;1687700;83;20949;-44
2021/06/15 09:58:50;;;;;;;2.55;2.30;;;;;;;29.92;36.14;99197.30;1693203;83;21028;-44
2021/06/15 10:01:38;;;;;;;3.08;2.62;;;;;;;29.96;37.28;99197.84;1701405;83;21080;-44
2021/06/15 10:04:22;;;;;;;5.28;2.70;;;;;;;29.97;37.98;99199.34;1714817;83;21024;-44
2021/06/15 10:09:51;;;;;;;2.65;2.45;;;;;;;30.20;36.93;99196.25;1851671;76;22721;-43
2021/06/15 10:12:17;;;;;;;3.72;2.80;;;;;;;30.26;37.32;99203.27;1813648;78;21529;-43
2021/06/15 10:14:44;;;;;;;3.33;2.40;;;;;;;30.35;36.88;99200.93;1810922;78;21086;-43
2021/06/15 10:17:11;;;;;;;4.92;2.80;;;;;;;30.41;36.84;99192.69;1756566;81;20941;-43
2021/06/15 10:19:40;;;;;;;2.42;2.20;;;;;;;30.53;37.73;99192.17;1757180;80;20941;-43
2021/06/15 10:22:08;;;;;;;3.05;2.47;;;;;;;30.66;37.69;99185.49;1756371;81;20945;-44
2021/06/15 10:24:36;;;;;;;3.20;2.62;;;;;;;30.80;36.35;99185.17;1757631;80;21004;-43
2021/06/15 10:27:09;;;;;;;3.17;2.58;;;;;;;30.77;35.95;99186.95;1760856;80;21094;-43
2021/06/15 10:29:37;;;;;;;2.80;2.50;;;;;;;30.77;36.34;99183.39;1787063;80;21013;-43
2021/06/15 10:32:22;;;;;;;3.70;2.70;;;;;;;30.77;35.77;99183.39;1762707;81;20959;-43
2021/06/15 10:35:07;;;;;;;4.20;3.02;;;;;;;30.79;35.43;99179.47;1769487;80;21093;-44
2021/06/15 10:37:39;;;;;;;4.45;2.70;;;;;;;30.83;35.37;99175.80;1771897;80;20993;-44
2021/06/15 10:40:17;;;;;;;2.75;2.47;;;;;;;30.88;35.42;99176.45;1758086;81;21757;-44
2021/06/15 10:43:13;;;;;;;2.70;2.20;;;;;;;31.05;35.74;99174.50;1788260;80;21008;-44
2021/06/15 10:45:40;;;;;;;3.52;2.40;;;;;;;31.32;34.37;99180.81;1778291;79;21093;-44
2021/06/15 10:48:15;;;;;;;3.12;2.77;;;;;;;31.55;33.63;99173.23;1762592;81;21591;-44
2021/06/15 10:50:47;;;;;;;3.60;2.60;;;;;;;31.75;34.81;99175.07;1777686;80;21077;-44
2021/06/15 10:53:20;;;;;;;5.80;2.72;;;;;;;31.91;33.59;99178.50;1790586;79;21149;-44
2021/06/15 10:55:53;;;;;;;3.87;2.60;;;;;;;31.94;33.12;99178.90;1772504;80;21531;-44
2021/06/15 10:58:44;;;;;;;2.98;2.47;;;;;;;32.02;33.32;99173.53;1787678;80;20977;-44
2021/06/15 11:01:28;;;;;;;11.67;2.83;;;;;;;32.15;32.81;99168.19;1749659;80;20952;-44
2021/06/15 11:04:00;;;;;;;13.45;3.30;;;;;;;32.29;32.34;99160.90;1756620;81;20997;-44
2021/06/15 11:06:32;;;;;;;10.30;3.42;;;;;;;32.49;32.67;99157.66;1773906;80;21134;-44
2021/06/15 11:09:16;;;;;;;5.03;2.47;;;;;;;32.61;32.39;99158.54;1780375;80;21012;-44
2021/06/15 11:11:49;;;;;;;4.30;2.35;;;;;;;32.65;32.94;99156.89;1774334;80;21465;-44
2021/06/15 11:14:21;;;;;;;3.85;2.52;;;;;;;32.68;32.81;99155.84;1760341;80;21558;-44
2021/06/15 11:16:55;;;;;;;2.90;2.50;;;;;;;32.68;32.84;99152.41;1727473;83;21649;-44
2021/06/15 11:19:27;;;;;;;11.43;3.60;;;;;;;32.81;32.62;99143.44;1727579;83;21122;-44
2021/06/15 11:22:11;;;;;;;3.77;2.72;;;;;;;32.91;32.41;99132.04;1727088;82;20992;-44
2021/06/15 11:24:51;;;;;;;2.98;2.30;;;;;;;33.00;31.62;99121.91;1764345;80;21004;-44
2021/06/15 11:27:27;;;;;;;3.62;2.80;;;;;;;33.09;31.71;99119.42;1754956;81;21084;-44
2021/06/15 11:29:59;;;;;;;3.58;2.77;;;;;;;33.23;31.13;99111.95;1789235;78;21055;-44
2021/06/15 11:32:34;;;;;;;3.50;2.50;;;;;;;33.46;31.61;99107.70;1818384;78;21121;-44
2021/06/15 11:35:06;;;;;;;3.60;2.70;;;;;;;33.62;30.59;99106.81;1812544;78;21027;-44
2021/06/15 11:37:45;;;;;;;5.12;2.50;;;;;;;33.71;30.53;99099.48;1801887;78;20973;-44
2021/06/15 11:40:23;;;;;;;3.47;2.67;;;;;;;33.72;30.36;99093.98;1832364;78;20945;-44
2021/06/15 11:43:11;;;;;;;4.47;2.87;;;;;;;33.77;31.41;99091.00;1832085;78;21499;-45
2021/06/15 11:45:43;;;;;;;3.08;2.77;;;;;;;33.79;30.13;99084.22;1758801;81;21021;-45
2021/06/15 11:48:35;;;;;;;4.53;2.70;;;;;;;33.80;30.39;99085.08;1775817;80;20934;-45
2021/06/15 11:51:03;;;;;;;3.58;2.70;;;;;;;33.95;30.05;99077.02;1747623;81;21025;-45
2021/06/15 11:53:31;;;;;;;6.35;2.95;;;;;;;34.11;30.27;99073.16;1829215;78;21017;-44
2021/06/15 11:56:02;;;;;;;4.28;2.85;;;;;;;34.27;30.41;99070.84;1804478;79;20976;-45
2021/06/15 11:58:43;;;;;;;3.35;2.70;;;;;;;34.40;29.60;99063.25;1799620;79;21112;-45
2021/06/15 12:01:11;;;;;;;3.35;2.60;;;;;;;34.38;30.04;99063.02;1723952;83;21552;-45
2021/06/15 12:03:42;;;;;;;;;;;;;;;34.34;30.27;99055.52;1726733;83;20991;-45
2021/06/15 12:06:10;;;;;;;3.00;2.70;;;;;;;34.34;30.22;99051.94;1733219;81;20142;-45
2021/06/15 12:08:39;;;;;;;3.70;2.73;;;;;;;34.24;30.49;99052.18;1811190;77;21013;-45